UAL969 EHAM-KSFO
Flight info
| Callsign | UAL969 |
|---|---|
| Flight time | N/A |
| Altitude | 34000 |
| Route | BERGI L602 SUPUR P1 GODOS DCT ROXAT DCT NATEB DCT TLA DCT GINGA/N0472F360 DCT GOMUP/M082F360 DCT 59N020W 61N030W 62N040W 63N050W DCT LIBOR/M082F380 DCT BERUS/N0485F380 DCT YFB DCT 63N080W 61N090W 57N100W DCT POLLE/N0475F400 DCT WALSH DCT BOI DCT MRRLO BDEGA4 |
| Aircraft | B772/H-SDE2E3FGHIJ5LORVWXY/LB1D1 |
Departure
| Time | N/A |
|---|---|
| Airport | Amsterdam Airport Schiphol (EHAM) |
Arrival
| Time | 2026-05-07 17:00 |
|---|---|
| Airport | San Francisco International Airport (KSFO) |
| Time | Latitude | Longitude | Altitude | Speed | Heading |
|---|---|---|---|---|---|
| 2026-05-07 16:09 | 40.92111 | -119.97167 | 34267 ft | 436 kts | 227° |
| 2026-05-07 16:09 | 40.89962 | -120.00060 | 34272 ft | 437 kts | 227° |
| 2026-05-07 16:10 | 40.85706 | -120.05778 | 34278 ft | 437 kts | 227° |
| 2026-05-07 16:10 | 40.81476 | -120.11452 | 34286 ft | 434 kts | 227° |
| 2026-05-07 16:11 | 40.77223 | -120.17145 | 34291 ft | 436 kts | 227° |
| 2026-05-07 16:11 | 40.72949 | -120.22857 | 34295 ft | 436 kts | 227° |
| 2026-05-07 16:12 | 40.68765 | -120.28437 | 34290 ft | 433 kts | 227° |
| 2026-05-07 16:12 | 40.64533 | -120.34070 | 34280 ft | 433 kts | 227° |
| 2026-05-07 16:13 | 40.60295 | -120.39700 | 34270 ft | 432 kts | 227° |
| 2026-05-07 16:13 | 40.56054 | -120.45324 | 34268 ft | 432 kts | 227° |
| 2026-05-07 16:14 | 40.51815 | -120.50934 | 34264 ft | 433 kts | 227° |
| 2026-05-07 16:14 | 40.47567 | -120.56546 | 34267 ft | 432 kts | 227° |
| 2026-05-07 16:15 | 40.43317 | -120.62150 | 34267 ft | 430 kts | 227° |
| 2026-05-07 16:15 | 40.39118 | -120.67676 | 34277 ft | 430 kts | 226° |
| 2026-05-07 16:16 | 40.34889 | -120.73231 | 34269 ft | 428 kts | 226° |
| 2026-05-07 16:16 | 40.30658 | -120.78778 | 34265 ft | 428 kts | 226° |
| 2026-05-07 16:17 | 40.26418 | -120.84326 | 34260 ft | 429 kts | 226° |
| 2026-05-07 16:17 | 40.22218 | -120.89812 | 34260 ft | 429 kts | 226° |
| 2026-05-07 16:18 | 40.18006 | -120.95303 | 34253 ft | 427 kts | 226° |
| 2026-05-07 16:18 | 40.13812 | -121.00761 | 34251 ft | 426 kts | 226° |
| 2026-05-07 16:19 | 40.09624 | -121.06201 | 34237 ft | 424 kts | 226° |
| 2026-05-07 16:19 | 40.05432 | -121.11636 | 34221 ft | 425 kts | 226° |
| 2026-05-07 16:20 | 40.01235 | -121.17068 | 34206 ft | 426 kts | 226° |
| 2026-05-07 16:20 | 39.97057 | -121.22464 | 34194 ft | 422 kts | 226° |
| 2026-05-07 16:21 | 39.92886 | -121.27843 | 34189 ft | 424 kts | 226° |
| 2026-05-07 16:21 | 39.88713 | -121.33215 | 34218 ft | 422 kts | 226° |
| 2026-05-07 16:22 | 39.84533 | -121.38585 | 34217 ft | 424 kts | 226° |
| 2026-05-07 16:22 | 39.80327 | -121.43979 | 34219 ft | 422 kts | 226° |
| 2026-05-07 16:23 | 39.76160 | -121.49313 | 34221 ft | 423 kts | 226° |
| 2026-05-07 16:23 | 39.71978 | -121.54656 | 34197 ft | 424 kts | 226° |
| 2026-05-07 16:24 | 39.67771 | -121.60023 | 34160 ft | 423 kts | 227° |
| 2026-05-07 16:24 | 39.63563 | -121.65381 | 34116 ft | 422 kts | 226° |
| 2026-05-07 16:25 | 39.59363 | -121.70719 | 34081 ft | 423 kts | 226° |
| 2026-05-07 16:25 | 39.55167 | -121.76043 | 34051 ft | 423 kts | 226° |
| 2026-05-07 16:26 | 39.50963 | -121.81366 | 34047 ft | 423 kts | 226° |
| 2026-05-07 16:26 | 39.46751 | -121.86690 | 34040 ft | 424 kts | 226° |
| 2026-05-07 16:27 | 39.42559 | -121.91980 | 34041 ft | 424 kts | 226° |
| 2026-05-07 16:27 | 39.38317 | -121.97324 | 34042 ft | 424 kts | 226° |
| 2026-05-07 16:28 | 39.34102 | -122.02624 | 34046 ft | 426 kts | 226° |
| 2026-05-07 16:28 | 39.29882 | -122.07920 | 34044 ft | 423 kts | 226° |
| 2026-05-07 16:29 | 39.25684 | -122.13180 | 34050 ft | 424 kts | 226° |
| 2026-05-07 16:29 | 39.21432 | -122.18499 | 34051 ft | 424 kts | 226° |
| 2026-05-07 16:30 | 39.17269 | -122.23694 | 33832 ft | 411 kts | 226° |
| 2026-05-07 16:30 | 39.15208 | -122.26264 | 32912 ft | 415 kts | 226° |
| 2026-05-07 16:30 | 39.13138 | -122.28845 | 31451 ft | 430 kts | 225° |
| 2026-05-07 16:30 | 39.10945 | -122.31576 | 30015 ft | 442 kts | 225° |
| 2026-05-07 16:31 | 39.08733 | -122.34327 | 29297 ft | 438 kts | 225° |
| 2026-05-07 16:31 | 39.06553 | -122.37035 | 29060 ft | 424 kts | 225° |
| 2026-05-07 16:31 | 39.04478 | -122.39609 | 28944 ft | 409 kts | 225° |
| 2026-05-07 16:31 | 39.02486 | -122.42079 | 28885 ft | 393 kts | 225° |
| 2026-05-07 16:32 | 39.00539 | -122.44492 | 28790 ft | 382 kts | 225° |
| 2026-05-07 16:32 | 38.96633 | -122.49327 | 28897 ft | 393 kts | 225° |
| 2026-05-07 16:32 | 38.94677 | -122.51746 | 29031 ft | 393 kts | 225° |
| 2026-05-07 16:33 | 38.92670 | -122.54106 | 29169 ft | 396 kts | 220° |
| 2026-05-07 16:33 | 38.90427 | -122.56117 | 28977 ft | 388 kts | 212° |
| 2026-05-07 16:33 | 38.88017 | -122.57642 | 28628 ft | 383 kts | 204° |
| 2026-05-07 16:33 | 38.85489 | -122.58664 | 28337 ft | 389 kts | 198° |
| 2026-05-07 16:34 | 38.82786 | -122.59537 | 27919 ft | 403 kts | 197° |
| 2026-05-07 16:34 | 38.80061 | -122.60387 | 27417 ft | 403 kts | 196° |
| 2026-05-07 16:34 | 38.77360 | -122.61205 | 26915 ft | 400 kts | 196° |
| 2026-05-07 16:34 | 38.74682 | -122.62000 | 26428 ft | 396 kts | 195° |
| 2026-05-07 16:35 | 38.71990 | -122.62788 | 25933 ft | 393 kts | 195° |
| 2026-05-07 16:35 | 38.69344 | -122.63554 | 25442 ft | 392 kts | 194° |
| 2026-05-07 16:35 | 38.66687 | -122.64317 | 24944 ft | 393 kts | 194° |
| 2026-05-07 16:35 | 38.64008 | -122.65081 | 24413 ft | 392 kts | 193° |
| 2026-05-07 16:36 | 38.61359 | -122.65833 | 23892 ft | 391 kts | 193° |
| 2026-05-07 16:36 | 38.58714 | -122.66583 | 23567 ft | 386 kts | 193° |
| 2026-05-07 16:36 | 38.56098 | -122.67323 | 23259 ft | 388 kts | 192° |
| 2026-05-07 16:36 | 38.53486 | -122.68059 | 22913 ft | 386 kts | 192° |
| 2026-05-07 16:37 | 38.50847 | -122.68803 | 22554 ft | 384 kts | 192° |
| 2026-05-07 16:37 | 38.48255 | -122.69532 | 22205 ft | 382 kts | 192° |
| 2026-05-07 16:37 | 38.45669 | -122.70258 | 21879 ft | 379 kts | 193° |
| 2026-05-07 16:37 | 38.43041 | -122.70996 | 21549 ft | 377 kts | 192° |
| 2026-05-07 16:38 | 38.40456 | -122.71721 | 21221 ft | 379 kts | 192° |
| 2026-05-07 16:38 | 38.37894 | -122.72439 | 20892 ft | 378 kts | 192° |
| 2026-05-07 16:38 | 38.35344 | -122.73153 | 20568 ft | 378 kts | 192° |
| 2026-05-07 16:38 | 38.32762 | -122.73875 | 20244 ft | 376 kts | 191° |
| 2026-05-07 16:39 | 38.30223 | -122.74584 | 19931 ft | 376 kts | 191° |
| 2026-05-07 16:39 | 38.27660 | -122.75300 | 19612 ft | 375 kts | 191° |
| 2026-05-07 16:39 | 38.25127 | -122.76000 | 19285 ft | 374 kts | 189° |
| 2026-05-07 16:39 | 38.22532 | -122.76306 | 18965 ft | 371 kts | 178° |
| 2026-05-07 16:40 | 38.20001 | -122.75961 | 18617 ft | 368 kts | 167° |
| 2026-05-07 16:40 | 38.17491 | -122.75276 | 18237 ft | 366 kts | 166° |
| 2026-05-07 16:40 | 38.15030 | -122.74573 | 17863 ft | 364 kts | 166° |
| 2026-05-07 16:40 | 38.12552 | -122.73859 | 17490 ft | 363 kts | 165° |
| 2026-05-07 16:41 | 38.10103 | -122.73152 | 17114 ft | 363 kts | 165° |
| 2026-05-07 16:41 | 38.07639 | -122.72440 | 16739 ft | 361 kts | 165° |
| 2026-05-07 16:41 | 38.05209 | -122.71736 | 16382 ft | 359 kts | 165° |
| 2026-05-07 16:41 | 38.02758 | -122.71027 | 16025 ft | 359 kts | 165° |
| 2026-05-07 16:42 | 38.00354 | -122.70332 | 15664 ft | 358 kts | 165° |
| 2026-05-07 16:42 | 37.97913 | -122.69625 | 15298 ft | 357 kts | 165° |
| 2026-05-07 16:42 | 37.95501 | -122.68928 | 14935 ft | 356 kts | 165° |
| 2026-05-07 16:42 | 37.93108 | -122.68237 | 14574 ft | 355 kts | 165° |
| 2026-05-07 16:43 | 37.90742 | -122.67371 | 14210 ft | 350 kts | 154° |
| 2026-05-07 16:43 | 37.88667 | -122.65816 | 13856 ft | 348 kts | 141° |
| 2026-05-07 16:43 | 37.86783 | -122.63933 | 13505 ft | 347 kts | 138° |
| 2026-05-07 16:43 | 37.84912 | -122.61974 | 13150 ft | 345 kts | 138° |
| 2026-05-07 16:44 | 37.83086 | -122.60045 | 12806 ft | 345 kts | 138° |
| 2026-05-07 16:44 | 37.81251 | -122.58103 | 12456 ft | 343 kts | 137° |
| 2026-05-07 16:44 | 37.79421 | -122.56167 | 12108 ft | 338 kts | 138° |
| 2026-05-07 16:44 | 37.77631 | -122.54273 | 11772 ft | 334 kts | 138° |
| 2026-05-07 16:45 | 37.75871 | -122.52411 | 11433 ft | 329 kts | 137° |
| 2026-05-07 16:45 | 37.74133 | -122.50574 | 11110 ft | 325 kts | 138° |
| 2026-05-07 16:45 | 37.72428 | -122.48770 | 10977 ft | 315 kts | 137° |
| 2026-05-07 16:45 | 37.70771 | -122.47006 | 10964 ft | 305 kts | 137° |
| 2026-05-07 16:46 | 37.69147 | -122.45274 | 10967 ft | 307 kts | 137° |
| 2026-05-07 16:46 | 37.67515 | -122.43538 | 10972 ft | 309 kts | 138° |
| 2026-05-07 16:46 | 37.65877 | -122.41797 | 10970 ft | 310 kts | 138° |
| 2026-05-07 16:46 | 37.64233 | -122.40051 | 10963 ft | 309 kts | 138° |
| 2026-05-07 16:47 | 37.62514 | -122.38226 | 10819 ft | 308 kts | 137° |
| 2026-05-07 16:47 | 37.60784 | -122.36459 | 10793 ft | 306 kts | 144° |
| 2026-05-07 16:47 | 37.58934 | -122.35111 | 10796 ft | 302 kts | 150° |
| 2026-05-07 16:47 | 37.57066 | -122.33901 | 10796 ft | 301 kts | 152° |
| 2026-05-07 16:48 | 37.55133 | -122.32661 | 10789 ft | 298 kts | 152° |
| 2026-05-07 16:48 | 37.53279 | -122.31466 | 10796 ft | 299 kts | 152° |
| 2026-05-07 16:48 | 37.51374 | -122.30235 | 10795 ft | 298 kts | 152° |
| 2026-05-07 16:48 | 37.49589 | -122.28875 | 10791 ft | 297 kts | 136° |
| 2026-05-07 16:49 | 37.48351 | -122.26838 | 10649 ft | 296 kts | 116° |
| 2026-05-07 16:49 | 37.47449 | -122.24531 | 10405 ft | 292 kts | 113° |
| 2026-05-07 16:49 | 37.46576 | -122.22199 | 10263 ft | 280 kts | 113° |
| 2026-05-07 16:49 | 37.45731 | -122.19942 | 10247 ft | 265 kts | 112° |
| 2026-05-07 16:50 | 37.44952 | -122.17880 | 10168 ft | 257 kts | 113° |
| 2026-05-07 16:50 | 37.44186 | -122.15855 | 9888 ft | 258 kts | 112° |
| 2026-05-07 16:50 | 37.43422 | -122.13827 | 9621 ft | 257 kts | 113° |
| 2026-05-07 16:50 | 37.42656 | -122.11802 | 9172 ft | 259 kts | 115° |
| 2026-05-07 16:51 | 37.41796 | -122.09813 | 8855 ft | 260 kts | 116° |
| 2026-05-07 16:51 | 37.40860 | -122.07900 | 8688 ft | 257 kts | 130° |
| 2026-05-07 16:51 | 37.39412 | -122.06610 | 8400 ft | 259 kts | 160° |
| 2026-05-07 16:51 | 37.37636 | -122.06358 | 8105 ft | 256 kts | 192° |
| 2026-05-07 16:52 | 37.36025 | -122.07223 | 7861 ft | 247 kts | 224° |
| 2026-05-07 16:52 | 37.35070 | -122.08877 | 7751 ft | 229 kts | 253° |
| 2026-05-07 16:52 | 37.34923 | -122.10803 | 7266 ft | 226 kts | 282° |
| 2026-05-07 16:52 | 37.35630 | -122.12524 | 6706 ft | 225 kts | 314° |
| 2026-05-07 16:53 | 37.36967 | -122.13484 | 6252 ft | 222 kts | 340° |
| 2026-05-07 16:53 | 37.38524 | -122.14059 | 5777 ft | 221 kts | 343° |
| 2026-05-07 16:53 | 37.39987 | -122.14597 | 5347 ft | 219 kts | 343° |
| 2026-05-07 16:53 | 37.41444 | -122.15138 | 4913 ft | 218 kts | 343° |
| 2026-05-07 16:54 | 37.42918 | -122.15571 | 4453 ft | 219 kts | 350° |
| 2026-05-07 16:54 | 37.44413 | -122.15822 | 4041 ft | 217 kts | 351° |
| 2026-05-07 16:54 | 37.45975 | -122.16071 | 3583 ft | 217 kts | 351° |
| 2026-05-07 16:54 | 37.47481 | -122.16312 | 3164 ft | 215 kts | 351° |
| 2026-05-07 16:55 | 37.49040 | -122.16560 | 2851 ft | 210 kts | 351° |
| 2026-05-07 16:55 | 37.50517 | -122.16795 | 2802 ft | 214 kts | 351° |
| 2026-05-07 16:55 | 37.51991 | -122.17033 | 2792 ft | 214 kts | 351° |
| 2026-05-07 16:55 | 37.53363 | -122.17710 | 2784 ft | 203 kts | 324° |
| 2026-05-07 16:56 | 37.54272 | -122.18970 | 2655 ft | 193 kts | 304° |
| 2026-05-07 16:56 | 37.54889 | -122.20448 | 2437 ft | 189 kts | 300° |
| 2026-05-07 16:56 | 37.56094 | -122.23315 | 2007 ft | 183 kts | 301° |
| 2026-05-07 16:57 | 37.56691 | -122.24719 | 1789 ft | 181 kts | 301° |
| 2026-05-07 16:57 | 37.57286 | -122.26122 | 1572 ft | 181 kts | 301° |
| 2026-05-07 16:57 | 37.57870 | -122.27502 | 1358 ft | 178 kts | 301° |
| 2026-05-07 16:57 | 37.58454 | -122.28877 | 1134 ft | 167 kts | 301° |
| 2026-05-07 16:58 | 37.59029 | -122.30238 | 922 ft | 154 kts | 301° |
| 2026-05-07 16:58 | 37.59514 | -122.31378 | 743 ft | 139 kts | 302° |
| 2026-05-07 16:58 | 37.59961 | -122.32414 | 574 ft | 134 kts | 302° |
| 2026-05-07 16:58 | 37.60411 | -122.33443 | 375 ft | 134 kts | 301° |
| 2026-05-07 16:59 | 37.60846 | -122.34521 | 252 ft | 139 kts | 300° |
| 2026-05-07 16:59 | 37.61302 | -122.35604 | 86 ft | 142 kts | 301° |
| 2026-05-07 16:59 | 37.61748 | -122.36649 | 20 ft | 121 kts | 298° |
| 2026-05-07 16:59 | 37.62082 | -122.37439 | 26 ft | 83 kts | 297° |
| 2026-05-07 17:00 | 37.62212 | -122.37886 | 34 ft | 36 kts | 272° |
| 2026-05-07 17:00 | 37.62222 | -122.38064 | 36 ft | 0 kts | 275° |
| 2026-05-07 17:00 | 37.62223 | -122.38068 | 36 ft | 0 kts | 275° |
| 2026-05-07 17:01 | 37.62225 | -122.38093 | 36 ft | 10 kts | 275° |
| 2026-05-07 17:01 | 37.62227 | -122.38268 | 36 ft | 27 kts | 269° |
| 2026-05-07 17:01 | 37.62213 | -122.38512 | 37 ft | 23 kts | 265° |
| 2026-05-07 17:02 | 37.62238 | -122.38681 | 36 ft | 14 kts | 295° |
| 2026-05-07 17:02 | 37.62283 | -122.38791 | 35 ft | 13 kts | 298° |
| 2026-05-07 17:02 | 37.62329 | -122.38905 | 35 ft | 11 kts | 281° |
| 2026-05-07 17:02 | 37.62281 | -122.38989 | 36 ft | 12 kts | 214° |
| 2026-05-07 17:03 | 37.62230 | -122.39085 | 36 ft | 13 kts | 240° |
| 2026-05-07 17:03 | 37.62151 | -122.39156 | 37 ft | 14 kts | 207° |
| 2026-05-07 17:03 | 37.62091 | -122.39195 | 37 ft | 0 kts | 207° |
| 2026-05-07 17:03 | 37.62069 | -122.39209 | 37 ft | 10 kts | 207° |
| 2026-05-07 17:04 | 37.62011 | -122.39315 | 37 ft | 17 kts | 250° |
| 2026-05-07 17:04 | 37.61972 | -122.39475 | 37 ft | 15 kts | 250° |
| 2026-05-07 17:04 | 37.61894 | -122.39526 | 35 ft | 16 kts | 178° |
| 2026-05-07 17:04 | 37.61781 | -122.39477 | 35 ft | 18 kts | 129° |
| 2026-05-07 17:05 | 37.61727 | -122.39360 | 37 ft | 13 kts | 120° |
| 2026-05-07 17:05 | 37.61712 | -122.39288 | 37 ft | 5 kts | 53° |
| 2026-05-07 17:05 | 37.61745 | -122.39259 | 37 ft | 2 kts | 31° |
| 2026-05-07 17:05 | 37.61758 | -122.39249 | 37 ft | 1 kts | 28° |
| 2026-05-07 17:06 | 37.61765 | -122.39246 | 37 ft | 0 kts | 27° |